createdAt,value
2023-05-24T00:02:08.867Z,13.30
2023-05-24T00:04:35.636Z,13.40
2023-05-24T00:07:03.462Z,13.40
2023-05-24T00:09:30.832Z,13.40
2023-05-24T00:11:57.831Z,13.40
2023-05-24T00:14:25.235Z,13.40
2023-05-24T00:16:51.978Z,13.40
2023-05-24T00:19:19.008Z,13.30
2023-05-24T00:21:46.743Z,13.30
2023-05-24T00:24:13.906Z,13.30
2023-05-24T00:26:41.203Z,13.30
2023-05-24T00:29:07.924Z,13.30
2023-05-24T00:31:35.830Z,13.30
2023-05-24T00:34:02.727Z,13.30
2023-05-24T00:36:29.457Z,13.20
2023-05-24T00:38:56.185Z,13.10
2023-05-24T00:41:22.904Z,13.00
2023-05-24T00:43:49.654Z,12.90
2023-05-24T00:46:22.979Z,13.00
2023-05-24T00:48:50.684Z,12.90
2023-05-24T00:51:17.817Z,12.90
2023-05-24T00:53:48.107Z,13.00
2023-05-24T00:56:15.807Z,12.90
2023-05-24T00:58:43.142Z,12.90
2023-05-24T01:01:10.288Z,12.90
2023-05-24T01:03:37.155Z,12.90
2023-05-24T01:06:07.264Z,12.90
2023-05-24T01:08:38.662Z,12.80
2023-05-24T01:11:29.424Z,12.80
2023-05-24T01:14:22.328Z,12.80
2023-05-24T01:17:11.099Z,12.70
2023-05-24T01:19:43.248Z,12.70
2023-05-24T01:22:39.719Z,12.60
2023-05-24T01:25:43.854Z,12.60
2023-05-24T01:28:12.185Z,12.60
2023-05-24T01:30:41.635Z,12.50
2023-05-24T01:33:09.122Z,12.50
2023-05-24T01:35:40.224Z,12.60
2023-05-24T01:38:07.382Z,12.50
2023-05-24T01:40:34.323Z,12.50
2023-05-24T01:43:00.961Z,12.50
2023-05-24T01:45:39.860Z,12.50
2023-05-24T01:48:11.314Z,12.50
2023-05-24T01:50:48.795Z,12.50
2023-05-24T01:53:19.436Z,12.40
2023-05-24T01:55:49.327Z,12.20
2023-05-24T01:58:18.746Z,12.20
2023-05-24T02:00:46.429Z,12.10
2023-05-24T02:03:16.319Z,12.10
2023-05-24T02:05:44.410Z,12.10
2023-05-24T02:08:11.536Z,12.00
2023-05-24T02:10:41.579Z,12.00
2023-05-24T02:13:09.294Z,12.00
2023-05-24T02:15:36.439Z,12.00
2023-05-24T02:18:04.115Z,12.00
2023-05-24T02:20:31.412Z,11.90
2023-05-24T02:22:58.534Z,11.90
2023-05-24T02:25:25.611Z,11.90
2023-05-24T02:27:52.463Z,11.80
2023-05-24T02:30:19.659Z,11.90
2023-05-24T02:32:46.773Z,11.80
2023-05-24T02:35:13.677Z,11.80
2023-05-24T02:37:40.666Z,11.80
2023-05-24T02:40:07.990Z,11.80
2023-05-24T02:42:34.680Z,11.80
2023-05-24T02:45:01.380Z,11.90
2023-05-24T02:47:28.394Z,11.90
2023-05-24T02:49:56.142Z,11.90
2023-05-24T02:52:23.351Z,11.90
2023-05-24T02:54:50.463Z,11.80
2023-05-24T02:57:17.230Z,11.80
2023-05-24T02:59:44.125Z,11.70
2023-05-24T03:02:13.699Z,11.60
2023-05-24T03:04:40.638Z,11.60
2023-05-24T03:07:07.362Z,11.50
2023-05-24T03:09:34.055Z,11.30
2023-05-24T03:12:00.750Z,11.30
2023-05-24T03:14:27.446Z,11.20
2023-05-24T03:16:54.092Z,11.10
2023-05-24T03:19:20.748Z,11.10
2023-05-24T03:21:47.426Z,11.10
2023-05-24T03:24:14.423Z,11.10
2023-05-24T03:26:41.354Z,11.00
2023-05-24T03:29:08.123Z,10.90
2023-05-24T03:31:34.880Z,10.80
2023-05-24T03:34:01.648Z,10.80
2023-05-24T03:36:29.236Z,10.70
2023-05-24T03:38:58.267Z,10.60
2023-05-24T03:41:25.207Z,10.60
2023-05-24T03:43:52.858Z,10.60
2023-05-24T03:46:19.693Z,10.60
2023-05-24T03:48:46.548Z,10.50
2023-05-24T03:51:13.300Z,10.50
2023-05-24T03:53:40.024Z,10.50
2023-05-24T03:56:06.855Z,10.50
2023-05-24T03:58:33.738Z,10.50
2023-05-24T04:01:01.146Z,10.50
2023-05-24T04:03:28.061Z,10.40
2023-05-24T04:05:54.983Z,10.40
2023-05-24T04:08:22.171Z,10.40
2023-05-24T04:10:50.802Z,10.40
2023-05-24T04:13:17.470Z,10.30
2023-05-24T04:15:44.146Z,10.40
2023-05-24T04:18:12.152Z,10.40
2023-05-24T04:20:39.329Z,10.30
2023-05-24T04:23:06.276Z,10.40
2023-05-24T04:25:33.644Z,10.40
2023-05-24T04:28:02.385Z,10.40
2023-05-24T04:30:30.254Z,10.40
2023-05-24T04:32:57.622Z,10.30
2023-05-24T04:35:25.669Z,10.30
2023-05-24T04:37:52.735Z,10.40
2023-05-24T04:40:23.020Z,10.40
2023-05-24T04:42:50.745Z,10.40
2023-05-24T04:45:17.477Z,10.40
2023-05-24T04:47:44.414Z,10.50
2023-05-24T04:50:11.279Z,10.50
2023-05-24T04:52:38.122Z,10.50
2023-05-24T04:55:05.165Z,10.50
2023-05-24T04:57:32.657Z,10.50
2023-05-24T04:59:59.476Z,10.60
2023-05-24T05:02:27.171Z,10.70
2023-05-24T05:04:53.972Z,10.90
2023-05-24T05:07:20.657Z,10.80
2023-05-24T05:09:47.653Z,10.90
2023-05-24T05:12:14.471Z,10.80
2023-05-24T05:14:41.220Z,10.70
2023-05-24T05:17:07.913Z,10.70
2023-05-24T05:19:34.957Z,10.80
2023-05-24T05:22:03.954Z,10.80
2023-05-24T05:24:31.485Z,10.80
2023-05-24T05:26:58.283Z,10.80
2023-05-24T05:29:24.986Z,10.90
2023-05-24T05:31:51.837Z,10.90
2023-05-24T05:34:19.548Z,11.00
2023-05-24T05:36:46.333Z,11.00
2023-05-24T05:39:13.115Z,11.00
2023-05-24T05:41:40.799Z,11.10
2023-05-24T05:44:07.758Z,11.00
2023-05-24T05:46:34.614Z,10.90
2023-05-24T05:49:01.526Z,11.00
2023-05-24T05:51:28.249Z,11.10
2023-05-24T05:53:57.924Z,11.00
2023-05-24T05:56:24.644Z,11.20
2023-05-24T05:58:51.393Z,11.30
2023-05-24T06:01:20.152Z,11.30
2023-05-24T06:03:47.886Z,11.40
2023-05-24T06:06:14.816Z,11.50
2023-05-24T06:08:44.018Z,11.60
2023-05-24T06:11:10.780Z,11.40
2023-05-24T06:13:37.646Z,11.50
2023-05-24T06:16:04.436Z,11.50
2023-05-24T06:18:32.519Z,11.60
2023-05-24T06:20:59.613Z,11.60
2023-05-24T06:23:26.473Z,11.70
2023-05-24T06:25:53.654Z,11.80
2023-05-24T06:28:20.541Z,12.10
2023-05-24T06:30:49.050Z,12.00
2023-05-24T06:33:16.198Z,12.30
2023-05-24T06:35:42.942Z,12.40
2023-05-24T06:38:09.642Z,12.30
2023-05-24T06:40:36.642Z,12.40
2023-05-24T06:43:03.961Z,12.50
2023-05-24T06:45:30.677Z,12.60
2023-05-24T06:47:57.466Z,12.80
2023-05-24T06:50:24.199Z,13.20
2023-05-24T06:52:51.145Z,13.00
2023-05-24T06:55:18.269Z,13.20
2023-05-24T06:57:44.957Z,13.40
2023-05-24T07:00:15.663Z,13.20
2023-05-24T07:02:47.260Z,13.10
2023-05-24T07:05:14.112Z,13.30
2023-05-24T07:07:42.319Z,13.40
2023-05-24T07:10:13.014Z,13.70
2023-05-24T07:12:39.885Z,13.90
2023-05-24T07:15:13.630Z,13.80
2023-05-24T07:17:41.693Z,14.00
2023-05-24T07:20:11.776Z,14.20
2023-05-24T07:22:38.828Z,14.40
2023-05-24T07:25:08.880Z,14.40
2023-05-24T07:27:37.816Z,13.90
2023-05-24T07:30:07.786Z,13.80
2023-05-24T07:32:38.951Z,14.00
2023-05-24T07:35:09.547Z,13.70
2023-05-24T07:37:36.203Z,13.70
2023-05-24T07:40:02.905Z,13.30
2023-05-24T07:42:29.584Z,13.10
2023-05-24T07:44:56.420Z,12.90
2023-05-24T07:47:23.929Z,13.30
2023-05-24T07:49:50.625Z,13.40
2023-05-24T07:52:19.776Z,13.50
2023-05-24T07:54:46.578Z,13.60
2023-05-24T07:57:13.838Z,13.50
2023-05-24T07:59:40.967Z,13.60
2023-05-24T08:02:11.743Z,13.40
2023-05-24T08:05:03.354Z,13.40
2023-05-24T08:07:30.123Z,13.20
2023-05-24T08:09:57.219Z,13.60
2023-05-24T08:12:27.818Z,13.70
2023-05-24T08:14:54.467Z,13.60
2023-05-24T08:17:23.732Z,13.90
2023-05-24T08:19:50.738Z,13.70
2023-05-24T08:22:17.472Z,13.40
2023-05-24T08:24:44.156Z,13.50
2023-05-24T08:27:14.710Z,13.30
2023-05-24T08:29:42.675Z,13.40
2023-05-24T08:32:09.753Z,13.70
2023-05-24T08:34:39.440Z,13.50
2023-05-24T08:37:07.052Z,13.60
2023-05-24T08:39:36.038Z,13.30
2023-05-24T08:44:41.894Z,13.20
2023-05-24T08:47:09.400Z,13.40
2023-05-24T08:49:37.787Z,13.30
2023-05-24T08:52:07.482Z,13.20
2023-05-24T08:54:39.882Z,13.40
2023-05-24T08:57:07.495Z,13.40
2023-05-24T08:59:34.225Z,13.50
2023-05-24T09:02:02.653Z,13.50
2023-05-24T09:04:31.095Z,13.10
2023-05-24T09:06:58.749Z,13.30
2023-05-24T09:09:28.680Z,13.50
2023-05-24T09:12:00.754Z,13.60
2023-05-24T09:14:27.459Z,13.80
2023-05-24T09:16:54.649Z,14.00
2023-05-24T09:19:21.366Z,14.00
2023-05-24T09:21:49.778Z,14.20
2023-05-24T09:24:17.016Z,14.30
2023-05-24T09:26:43.725Z,14.30
2023-05-24T09:29:10.473Z,14.40
2023-05-24T09:31:39.596Z,14.10
2023-05-24T09:34:14.684Z,14.20
2023-05-24T09:36:46.710Z,14.50
2023-05-24T09:39:13.656Z,14.60
2023-05-24T09:41:44.408Z,14.60
2023-05-24T09:44:14.348Z,14.30
2023-05-24T09:46:41.088Z,13.80
2023-05-24T09:49:08.567Z,14.30
2023-05-24T09:51:41.327Z,14.00
2023-05-24T09:54:09.713Z,13.90
2023-05-24T09:56:37.879Z,14.00
2023-05-24T09:59:08.875Z,14.10
2023-05-24T10:01:36.297Z,13.90
2023-05-24T10:04:09.205Z,14.20
2023-05-24T10:06:38.577Z,14.00
2023-05-24T10:09:10.646Z,13.90
2023-05-24T10:11:40.974Z,14.10
2023-05-24T10:14:10.018Z,14.10
2023-05-24T10:16:39.718Z,13.80
2023-05-24T10:19:07.384Z,13.90
2023-05-24T10:21:38.801Z,14.00
2023-05-24T10:24:09.038Z,14.40
2023-05-24T10:26:39.398Z,14.40
2023-05-24T10:29:12.544Z,14.40
2023-05-24T10:31:41.765Z,14.50
2023-05-24T10:34:09.392Z,14.30
2023-05-24T10:36:37.823Z,14.40
2023-05-24T10:39:05.019Z,14.30
2023-05-24T10:41:40.093Z,14.50
2023-05-24T10:44:13.616Z,14.50
2023-05-24T10:47:04.044Z,14.40
2023-05-24T10:49:31.275Z,14.60
2023-05-24T10:52:02.873Z,14.70
2023-05-24T10:54:32.987Z,15.00
2023-05-24T10:57:05.164Z,14.60
2023-05-24T10:59:39.812Z,14.10
2023-05-24T11:02:14.658Z,14.40
2023-05-24T11:04:49.128Z,14.30
2023-05-24T11:07:20.299Z,14.40
2023-05-24T11:09:52.978Z,14.40
2023-05-24T11:12:23.528Z,14.10
2023-05-24T11:14:52.361Z,14.30
2023-05-24T11:17:23.757Z,14.70
2023-05-24T11:19:54.107Z,14.80
2023-05-24T11:22:22.450Z,14.80
2023-05-24T11:24:49.313Z,14.80
2023-05-24T11:27:16.443Z,15.00
2023-05-24T11:29:46.172Z,15.40
2023-05-24T11:32:19.415Z,15.50
2023-05-24T11:34:51.192Z,15.30
2023-05-24T11:37:18.916Z,15.20
2023-05-24T11:39:53.005Z,15.00
2023-05-24T11:42:22.188Z,15.00
2023-05-24T11:44:49.852Z,15.50
2023-05-24T11:47:18.685Z,15.60
2023-05-24T11:49:50.180Z,16.00
2023-05-24T11:52:17.207Z,15.60
2023-05-24T11:54:44.624Z,15.70
2023-05-24T11:57:14.515Z,15.50
2023-05-24T11:59:43.225Z,15.50
2023-05-24T12:02:12.635Z,15.50
2023-05-24T12:04:39.915Z,15.50
2023-05-24T12:07:11.210Z,15.80
2023-05-24T12:09:38.340Z,15.60
2023-05-24T12:12:08.872Z,15.80
2023-05-24T12:14:36.030Z,15.90
2023-05-24T12:17:02.720Z,15.90
2023-05-24T12:19:37.281Z,15.80
2023-05-24T12:22:06.722Z,15.80
2023-05-24T12:24:36.244Z,15.70
2023-05-24T12:27:07.873Z,15.80
2023-05-24T12:29:39.488Z,15.80
2023-05-24T12:32:12.246Z,15.60
2023-05-24T12:34:43.729Z,15.90
2023-05-24T12:37:12.381Z,16.00
2023-05-24T12:39:44.246Z,15.90
2023-05-24T12:42:15.030Z,15.70
2023-05-24T12:44:43.570Z,15.70
2023-05-24T12:47:10.535Z,15.80
2023-05-24T12:49:40.281Z,15.70
2023-05-24T12:52:07.191Z,15.60
2023-05-24T12:54:34.063Z,15.80
2023-05-24T12:57:02.615Z,16.00
2023-05-24T12:59:29.538Z,16.60
2023-05-24T13:01:56.506Z,16.70
2023-05-24T13:04:26.190Z,16.50
2023-05-24T13:06:53.865Z,16.60
2023-05-24T13:09:22.422Z,16.70
2023-05-24T13:11:49.359Z,16.20
2023-05-24T13:14:18.842Z,16.20
2023-05-24T13:16:46.927Z,16.40
2023-05-24T13:19:13.716Z,16.60
2023-05-24T13:21:41.588Z,16.80
2023-05-24T13:24:08.672Z,17.00
2023-05-24T13:26:37.678Z,16.60
2023-05-24T13:29:32.356Z,16.20
2023-05-24T13:31:54.327Z,16.30
2023-05-24T13:34:21.680Z,16.20
2023-05-24T13:36:48.476Z,16.60
2023-05-24T13:39:16.567Z,16.80
2023-05-24T13:41:45.283Z,16.90
2023-05-24T13:44:13.532Z,16.60
2023-05-24T13:46:40.928Z,16.30
2023-05-24T13:49:09.349Z,16.50
2023-05-24T13:51:36.847Z,16.40
2023-05-24T13:54:06.933Z,16.30
2023-05-24T13:56:34.287Z,16.10
2023-05-24T13:59:02.510Z,15.70
2023-05-24T14:01:29.702Z,15.60
2023-05-24T14:03:58.332Z,15.60
2023-05-24T14:06:25.019Z,15.70
2023-05-24T14:08:52.265Z,15.50
2023-05-24T14:11:19.675Z,15.40
2023-05-24T14:16:19.024Z,15.40
2023-05-24T14:18:46.174Z,15.10
2023-05-24T14:21:12.848Z,15.20
2023-05-24T14:26:29.810Z,14.90
2023-05-24T14:28:57.061Z,15.00
2023-05-24T14:31:24.446Z,15.20
2023-05-24T14:33:51.206Z,15.10
2023-05-24T14:36:19.865Z,14.90
2023-05-24T14:38:46.703Z,14.90
2023-05-24T14:41:13.426Z,14.60
2023-05-24T14:43:40.362Z,14.50
2023-05-24T14:46:07.168Z,14.40
2023-05-24T14:48:33.976Z,14.20
2023-05-24T14:51:00.661Z,14.20
2023-05-24T14:53:28.927Z,14.10
2023-05-24T14:55:55.719Z,14.30
2023-05-24T14:58:22.510Z,14.30
2023-05-24T15:00:49.467Z,14.10
2023-05-24T15:03:16.432Z,14.30
2023-05-24T15:05:43.303Z,14.00
2023-05-24T15:08:13.074Z,14.00
2023-05-24T15:10:40.242Z,13.80
2023-05-24T15:13:07.062Z,13.90
2023-05-24T15:15:33.779Z,14.00
2023-05-24T15:18:02.660Z,14.20
2023-05-24T15:20:31.474Z,13.80
2023-05-24T15:22:58.227Z,13.80
2023-05-24T15:25:24.925Z,13.90
2023-05-24T15:27:52.033Z,14.00
2023-05-24T15:30:22.757Z,13.80
2023-05-24T15:32:49.788Z,13.80
2023-05-24T15:35:18.525Z,13.70
2023-05-24T15:37:46.053Z,13.50
2023-05-24T15:40:13.761Z,13.30
2023-05-24T15:42:40.635Z,13.20
2023-05-24T15:45:07.976Z,13.20
2023-05-24T15:47:40.236Z,13.10
2023-05-24T15:50:08.730Z,12.90
2023-05-24T15:52:36.547Z,12.90
2023-05-24T15:55:03.494Z,12.80
2023-05-24T15:57:32.162Z,12.60
2023-05-24T15:59:59.286Z,12.70
2023-05-24T16:02:26.223Z,12.70
2023-05-24T16:04:55.513Z,12.60
2023-05-24T16:07:22.571Z,12.60
2023-05-24T16:09:52.193Z,12.60
2023-05-24T16:12:18.914Z,12.80
2023-05-24T16:14:47.843Z,12.70
2023-05-24T16:17:17.472Z,12.70
2023-05-24T16:19:47.095Z,12.80
2023-05-24T16:22:14.104Z,13.00
2023-05-24T16:24:43.174Z,13.00
2023-05-24T16:27:10.581Z,13.00
2023-05-24T16:29:37.751Z,13.00
2023-05-24T16:32:04.760Z,13.10
2023-05-24T16:34:36.602Z,13.00
2023-05-24T16:37:12.101Z,13.20
2023-05-24T16:39:38.875Z,13.30
2023-05-24T16:42:07.136Z,13.20
2023-05-24T16:44:34.636Z,13.00
2023-05-24T16:47:02.285Z,13.00
2023-05-24T16:49:29.090Z,12.90
2023-05-24T16:51:55.845Z,12.70
2023-05-24T16:54:24.229Z,12.70
2023-05-24T16:56:53.774Z,12.60
2023-05-24T16:59:22.298Z,12.70
2023-05-24T17:01:51.386Z,12.60
2023-05-24T17:04:19.687Z,12.60
2023-05-24T17:06:46.452Z,12.60
2023-05-24T17:09:13.161Z,12.60
2023-05-24T17:11:39.896Z,12.50
2023-05-24T17:14:06.742Z,12.40
2023-05-24T17:16:33.533Z,12.30
2023-05-24T17:19:00.446Z,12.40
2023-05-24T17:21:27.989Z,12.40
2023-05-24T17:23:55.577Z,12.40
2023-05-24T17:26:25.159Z,12.50
2023-05-24T17:28:53.751Z,12.40
2023-05-24T17:31:20.866Z,12.40
2023-05-24T17:33:48.908Z,12.30
2023-05-24T17:36:15.788Z,12.40
2023-05-24T17:38:42.553Z,12.50
2023-05-24T17:41:09.820Z,12.50
2023-05-24T17:43:39.074Z,12.60
2023-05-24T17:46:07.307Z,12.50
2023-05-24T17:48:39.014Z,12.50
2023-05-24T17:51:07.929Z,12.50
2023-05-24T17:53:35.486Z,12.50
2023-05-24T17:56:05.122Z,12.60
2023-05-24T17:58:35.448Z,12.70
2023-05-24T18:01:05.095Z,12.60
2023-05-24T18:03:33.488Z,12.60
2023-05-24T18:06:01.073Z,12.60
2023-05-24T18:08:27.929Z,12.60
2023-05-24T18:10:54.606Z,12.60
2023-05-24T18:13:21.661Z,12.60
2023-05-24T18:15:49.687Z,12.50
2023-05-24T18:18:16.515Z,12.50
2023-05-24T18:20:43.718Z,12.50
2023-05-24T18:23:10.608Z,12.50
2023-05-24T18:25:38.077Z,12.60
2023-05-24T18:28:07.325Z,12.60
2023-05-24T18:30:36.231Z,12.60
2023-05-24T18:33:07.899Z,12.60
2023-05-24T18:35:35.715Z,12.60
2023-05-24T18:38:03.360Z,12.60
2023-05-24T18:40:30.295Z,12.50
2023-05-24T18:42:59.433Z,12.50
2023-05-24T18:45:26.118Z,12.40
2023-05-24T18:47:55.281Z,12.40
2023-05-24T18:50:23.318Z,12.40
2023-05-24T18:52:50.487Z,12.40
2023-05-24T18:55:17.263Z,12.40
2023-05-24T18:57:43.968Z,12.50
2023-05-24T19:00:11.753Z,12.40
2023-05-24T19:02:39.553Z,12.30
2023-05-24T19:05:09.824Z,12.30
2023-05-24T19:07:37.047Z,12.20
2023-05-24T19:10:04.660Z,12.20
2023-05-24T19:12:31.644Z,12.20
2023-05-24T19:14:58.456Z,12.10
2023-05-24T19:17:25.632Z,12.10
2023-05-24T19:19:52.542Z,12.10
2023-05-24T19:22:19.372Z,12.10
2023-05-24T19:24:46.306Z,12.00
2023-05-24T19:27:13.568Z,12.00
2023-05-24T19:29:42.668Z,12.00
2023-05-24T19:32:11.468Z,12.00
2023-05-24T19:34:42.056Z,12.00
2023-05-24T19:37:09.614Z,12.00
2023-05-24T19:39:37.019Z,12.00
2023-05-24T19:42:04.366Z,11.90
2023-05-24T19:44:31.086Z,11.90
2023-05-24T19:46:57.824Z,11.90
2023-05-24T19:49:24.609Z,11.90
2023-05-24T19:51:52.447Z,11.90
2023-05-24T19:54:20.745Z,11.90
2023-05-24T19:56:50.517Z,11.90
2023-05-24T19:59:17.965Z,11.90
2023-05-24T20:01:45.552Z,11.90
2023-05-24T20:04:12.905Z,11.80
2023-05-24T20:06:40.432Z,11.80
2023-05-24T20:09:07.217Z,11.80
2023-05-24T20:11:34.660Z,11.80
2023-05-24T20:14:01.663Z,11.80
2023-05-24T20:16:29.284Z,11.80
2023-05-24T20:18:55.993Z,11.80
2023-05-24T20:21:22.798Z,11.90
2023-05-24T20:23:50.752Z,11.80
2023-05-24T20:26:17.427Z,11.80
2023-05-24T20:28:44.169Z,11.80
2023-05-24T20:31:10.875Z,11.90
2023-05-24T20:33:38.515Z,11.90
2023-05-24T20:36:05.724Z,11.80
2023-05-24T20:38:32.479Z,11.80
2023-05-24T20:40:59.934Z,11.80
2023-05-24T20:43:26.645Z,11.80
2023-05-24T20:45:53.861Z,11.80
2023-05-24T20:48:20.920Z,11.80
2023-05-24T20:50:47.616Z,11.80
2023-05-24T20:53:14.265Z,11.80
2023-05-24T20:55:43.603Z,11.80
2023-05-24T20:58:10.723Z,11.80
2023-05-24T21:00:39.709Z,11.80
2023-05-24T21:03:07.008Z,11.70
2023-05-24T21:05:36.298Z,11.70
2023-05-24T21:08:03.812Z,11.70
2023-05-24T21:10:30.759Z,11.60
2023-05-24T21:12:58.846Z,11.60
2023-05-24T21:15:25.763Z,11.60
2023-05-24T21:17:52.502Z,11.60
2023-05-24T21:20:21.105Z,11.60
2023-05-24T21:22:47.904Z,11.60
2023-05-24T21:25:14.693Z,11.60
2023-05-24T21:27:43.427Z,11.60
2023-05-24T21:30:10.554Z,11.50
2023-05-24T21:32:37.341Z,11.50
2023-05-24T21:35:04.502Z,11.40
2023-05-24T21:37:31.203Z,11.50
2023-05-24T21:39:57.924Z,11.50
2023-05-24T21:42:24.610Z,11.40
2023-05-24T21:44:51.269Z,11.50
2023-05-24T21:47:17.927Z,11.40
2023-05-24T21:49:44.697Z,11.40
2023-05-24T21:52:11.583Z,11.40
2023-05-24T21:54:38.315Z,11.40
2023-05-24T21:57:06.726Z,11.40
2023-05-24T21:59:33.444Z,11.40
2023-05-24T22:02:00.192Z,11.40
2023-05-24T22:04:29.684Z,11.30
2023-05-24T22:06:56.399Z,11.30
2023-05-24T22:09:23.560Z,11.30
2023-05-24T22:11:50.571Z,11.30
2023-05-24T22:14:17.438Z,11.30
2023-05-24T22:16:44.241Z,11.30
2023-05-24T22:19:14.483Z,11.20
2023-05-24T22:21:42.830Z,11.20
2023-05-24T22:24:09.883Z,11.20
2023-05-24T22:26:36.648Z,11.20
2023-05-24T22:29:04.280Z,11.20
2023-05-24T22:31:33.357Z,11.20
2023-05-24T22:34:03.752Z,11.10
2023-05-24T22:36:33.264Z,11.10
2023-05-24T22:39:04.004Z,11.10
2023-05-24T22:41:30.823Z,11.20
2023-05-24T22:43:57.762Z,11.10
2023-05-24T22:46:24.884Z,11.10
2023-05-24T22:48:52.446Z,11.10
2023-05-24T22:51:22.151Z,11.10
2023-05-24T22:53:48.985Z,11.10
2023-05-24T22:56:15.818Z,11.10
2023-05-24T22:58:42.526Z,11.10
2023-05-24T23:01:09.235Z,11.10
2023-05-24T23:03:36.073Z,11.00
2023-05-24T23:06:04.762Z,11.00
2023-05-24T23:08:32.379Z,11.00
2023-05-24T23:11:00.074Z,11.00
2023-05-24T23:13:33.659Z,11.00
2023-05-24T23:16:00.776Z,10.90
2023-05-24T23:18:28.130Z,10.90
2023-05-24T23:20:55.891Z,10.90
2023-05-24T23:23:23.893Z,10.90
2023-05-24T23:25:51.158Z,10.90
2023-05-24T23:28:18.284Z,10.80
2023-05-24T23:30:45.521Z,10.80
2023-05-24T23:33:12.237Z,10.70
2023-05-24T23:35:42.202Z,10.70
2023-05-24T23:38:09.027Z,10.70
2023-05-24T23:40:36.547Z,10.70
2023-05-24T23:43:04.107Z,10.60
2023-05-24T23:45:31.037Z,10.60
2023-05-24T23:47:58.384Z,10.60
2023-05-24T23:50:25.463Z,10.60
2023-05-24T23:52:52.173Z,10.60
2023-05-24T23:55:19.094Z,10.60
2023-05-24T23:57:47.561Z,10.50
